createdAt,value
2022-10-25T00:00:50.130Z,100528.03
2022-10-25T00:03:18.407Z,100535.13
2022-10-25T00:05:47.553Z,100540.25
2022-10-25T00:08:15.738Z,100527.34
2022-10-25T00:10:43.523Z,100539.38
2022-10-25T00:13:11.995Z,100544.75
2022-10-25T00:15:41.319Z,100539.38
2022-10-25T00:18:09.452Z,100549.22
2022-10-25T00:20:38.481Z,100554.59
2022-10-25T00:23:06.515Z,100543.34
2022-10-25T00:25:35.352Z,100548.09
2022-10-25T00:28:03.679Z,100545.34
2022-10-25T00:30:32.061Z,100547.78
2022-10-25T00:33:00.010Z,100548.53
2022-10-25T00:35:28.951Z,100542.22
2022-10-25T00:37:58.187Z,100545.38
2022-10-25T00:40:25.900Z,100549.63
2022-10-25T00:42:53.585Z,100553.97
2022-10-25T00:45:28.335Z,100555.44
2022-10-25T00:48:10.345Z,100553.53
2022-10-25T00:50:50.763Z,100553.34
2022-10-25T00:53:25.600Z,100547.13
2022-10-25T00:56:30.693Z,100542.00
2022-10-25T00:59:04.364Z,100550.56
2022-10-25T01:01:32.704Z,100546.16
2022-10-25T01:04:09.070Z,100561.06
2022-10-25T01:06:47.869Z,100558.63
2022-10-25T01:09:21.421Z,100563.06
2022-10-25T01:11:49.436Z,100537.00
2022-10-25T01:14:18.183Z,100563.06
2022-10-25T01:17:07.437Z,100570.06
2022-10-25T01:20:11.756Z,100562.38
2022-10-25T01:23:11.642Z,100565.06
2022-10-25T01:26:11.062Z,100564.47
2022-10-25T01:29:00.479Z,100558.91
2022-10-25T01:32:18.751Z,100566.97
2022-10-25T01:35:01.847Z,100560.66
2022-10-25T01:38:04.605Z,100562.38
2022-10-25T01:40:53.844Z,100560.56
2022-10-25T01:43:58.357Z,100556.22
2022-10-25T01:46:32.780Z,100555.34
2022-10-25T01:49:12.296Z,100543.03
2022-10-25T01:51:40.405Z,100547.97
2022-10-25T01:54:25.144Z,100553.09
2022-10-25T01:57:24.128Z,100560.19
2022-10-25T02:00:08.038Z,100561.25
2022-10-25T02:03:15.676Z,100552.66
2022-10-25T02:06:22.488Z,100553.53
2022-10-25T02:09:10.035Z,100556.22
2022-10-25T02:11:39.486Z,100546.09
2022-10-25T02:14:29.205Z,100564.25
2022-10-25T02:17:22.616Z,100547.47
2022-10-25T02:19:56.828Z,100541.50
2022-10-25T02:22:30.454Z,100540.66
2022-10-25T02:25:00.681Z,100544.38
2022-10-25T02:27:32.046Z,100550.69
2022-10-25T02:30:00.808Z,100542.91
2022-10-25T02:32:31.373Z,100543.00
2022-10-25T02:34:59.106Z,100547.56
2022-10-25T02:37:27.219Z,100546.00
2022-10-25T02:39:55.901Z,100530.41
2022-10-25T02:42:26.455Z,100531.56
2022-10-25T02:44:56.718Z,100545.66
2022-10-25T02:47:25.786Z,100541.16
2022-10-25T02:50:13.595Z,100547.59
2022-10-25T02:52:41.512Z,100549.31
2022-10-25T02:55:10.144Z,100544.03
2022-10-25T02:57:38.443Z,100533.31
2022-10-25T03:00:08.434Z,100534.66
2022-10-25T03:02:36.288Z,100550.38
2022-10-25T03:05:04.664Z,100540.75
2022-10-25T03:07:32.393Z,100536.38
2022-10-25T03:10:00.342Z,100548.81
2022-10-25T03:12:30.649Z,100542.88
2022-10-25T03:14:59.718Z,100554.41
2022-10-25T03:17:27.479Z,100557.09
2022-10-25T03:19:55.310Z,100548.44
2022-10-25T03:22:23.016Z,100554.66
2022-10-25T03:24:51.120Z,100562.47
2022-10-25T03:27:19.288Z,100558.06
2022-10-25T03:29:49.400Z,100555.38
2022-10-25T03:32:17.298Z,100556.28
2022-10-25T03:34:44.994Z,100568.78
2022-10-25T03:37:13.385Z,100547.72
2022-10-25T03:39:41.221Z,100561.75
2022-10-25T03:42:09.016Z,100559.88
2022-10-25T03:44:36.860Z,100566.00
2022-10-25T03:47:04.989Z,100564.19
2022-10-25T03:49:35.402Z,100571.28
2022-10-25T03:52:06.203Z,100566.72
2022-10-25T03:54:34.818Z,100570.19
2022-10-25T03:57:03.862Z,100553.69
2022-10-25T03:59:31.698Z,100580.13
2022-10-25T04:02:01.718Z,100572.78
2022-10-25T04:04:29.940Z,100577.28
2022-10-25T04:06:57.647Z,100573.84
2022-10-25T04:09:25.540Z,100578.25
2022-10-25T04:11:53.475Z,100575.56
2022-10-25T04:14:24.000Z,100581.03
2022-10-25T04:16:52.348Z,100573.09
2022-10-25T04:19:24.833Z,100575.69
2022-10-25T04:21:52.554Z,100556.84
2022-10-25T04:24:20.228Z,100580.44
2022-10-25T04:26:48.692Z,100576.13
2022-10-25T04:29:17.584Z,100580.81
2022-10-25T04:31:45.269Z,100579.16
2022-10-25T04:34:12.949Z,100587.47
2022-10-25T04:36:41.095Z,100581.41
2022-10-25T04:39:08.779Z,100590.41
2022-10-25T04:41:36.549Z,100573.06
2022-10-25T04:44:04.498Z,100577.25
2022-10-25T04:46:32.364Z,100581.81
2022-10-25T04:49:00.496Z,100581.56
2022-10-25T04:51:28.252Z,100574.91
2022-10-25T04:53:57.415Z,100570.16
2022-10-25T04:56:25.460Z,100581.66
2022-10-25T04:58:53.460Z,100578.09
2022-10-25T05:01:21.276Z,100572.03
2022-10-25T05:03:51.596Z,100575.56
2022-10-25T05:06:29.673Z,100579.13
2022-10-25T05:09:01.151Z,100584.16
2022-10-25T05:11:30.110Z,100575.41
2022-10-25T05:13:57.915Z,100592.13
2022-10-25T05:16:26.155Z,100594.88
2022-10-25T05:19:02.949Z,100578.41
2022-10-25T05:21:31.319Z,100592.50
2022-10-25T05:24:01.981Z,100596.84
2022-10-25T05:26:31.465Z,100596.78
2022-10-25T05:28:59.818Z,100599.53
2022-10-25T05:31:30.502Z,100603.84
2022-10-25T05:34:01.194Z,100605.69
2022-10-25T05:36:30.148Z,100609.16
2022-10-25T05:38:59.192Z,100610.81
2022-10-25T05:41:29.717Z,100588.00
2022-10-25T05:44:02.277Z,100604.41
2022-10-25T05:46:30.097Z,100605.53
2022-10-25T05:48:59.661Z,100614.34
2022-10-25T05:51:37.626Z,100596.25
2022-10-25T05:54:10.777Z,100622.59
2022-10-25T05:56:43.942Z,100615.56
2022-10-25T05:59:17.108Z,100615.41
2022-10-25T06:01:47.252Z,100611.75
2022-10-25T06:04:17.190Z,100623.34
2022-10-25T06:06:47.093Z,100618.75
2022-10-25T06:09:15.791Z,100619.66
2022-10-25T06:11:45.040Z,100635.41
2022-10-25T06:14:14.968Z,100618.84
2022-10-25T06:16:42.736Z,100635.16
2022-10-25T06:19:10.476Z,100644.09
2022-10-25T06:21:38.327Z,100626.56
2022-10-25T06:24:06.747Z,100652.66
2022-10-25T06:26:34.535Z,100651.66
2022-10-25T06:29:04.842Z,100647.13
2022-10-25T06:31:33.732Z,100648.78
2022-10-25T06:34:03.180Z,100631.53
2022-10-25T06:36:31.996Z,100654.38
2022-10-25T06:39:05.257Z,100641.41
2022-10-25T06:41:38.800Z,100660.72
2022-10-25T06:44:07.762Z,100650.22
2022-10-25T06:49:27.854Z,100662.97
2022-10-25T06:51:55.811Z,100652.13
2022-10-25T06:54:25.972Z,100637.53
2022-10-25T06:56:53.777Z,100645.53
2022-10-25T06:59:22.077Z,100674.31
2022-10-25T07:01:50.293Z,100675.44
2022-10-25T07:04:21.610Z,100663.75
2022-10-25T07:06:52.783Z,100662.16
2022-10-25T07:09:22.930Z,100665.47
2022-10-25T07:11:50.779Z,100652.22
2022-10-25T07:14:18.623Z,100669.81
2022-10-25T07:16:46.375Z,100665.47
2022-10-25T07:19:14.166Z,100669.81
2022-10-25T07:21:42.055Z,100669.72
2022-10-25T07:24:11.154Z,100678.50
2022-10-25T07:26:40.357Z,100689.13
2022-10-25T07:29:08.626Z,100684.38
2022-10-25T07:31:45.876Z,100694.00
2022-10-25T07:34:15.735Z,100683.28
2022-10-25T07:36:47.371Z,100673.56
2022-10-25T07:39:15.280Z,100686.44
2022-10-25T07:41:44.091Z,100700.41
2022-10-25T07:44:16.702Z,100691.38
2022-10-25T07:46:46.872Z,100692.97
2022-10-25T07:49:14.726Z,100700.41
2022-10-25T07:51:42.819Z,100707.22
2022-10-25T07:54:10.767Z,100716.75
2022-10-25T07:56:40.978Z,100705.75
2022-10-25T07:59:08.632Z,100704.59
2022-10-25T08:01:36.648Z,100717.34
2022-10-25T08:04:04.773Z,100710.84
2022-10-25T08:06:32.581Z,100722.13
2022-10-25T08:09:05.583Z,100712.06
2022-10-25T08:11:42.549Z,100722.38
2022-10-25T08:14:10.357Z,100724.63
2022-10-25T08:16:38.688Z,100740.34
2022-10-25T08:19:06.815Z,100726.56
2022-10-25T08:21:34.759Z,100727.31
2022-10-25T08:24:02.593Z,100737.44
2022-10-25T08:26:36.500Z,100732.00
2022-10-25T08:29:05.950Z,100739.72
2022-10-25T08:31:34.295Z,100742.03
2022-10-25T08:34:02.558Z,100728.47
2022-10-25T08:36:31.069Z,100746.59
2022-10-25T08:38:58.920Z,100754.13
2022-10-25T08:41:38.457Z,100754.34
2022-10-25T08:44:47.138Z,100751.28
2022-10-25T08:47:43.286Z,100751.97
2022-10-25T08:50:41.067Z,100748.94
2022-10-25T08:53:23.122Z,100758.97
2022-10-25T08:56:15.216Z,100762.41
2022-10-25T08:58:57.985Z,100750.22
2022-10-25T09:01:45.120Z,100750.00
2022-10-25T09:04:13.079Z,100748.56
2022-10-25T09:07:14.812Z,100758.38
2022-10-25T09:09:54.181Z,100749.53
2022-10-25T09:12:33.631Z,100764.75
2022-10-25T09:16:01.450Z,100762.25
2022-10-25T09:18:47.498Z,100760.63
2022-10-25T09:21:36.899Z,100758.38
2022-10-25T09:24:40.438Z,100756.22
2022-10-25T09:27:14.616Z,100745.50
2022-10-25T09:30:08.920Z,100734.53
2022-10-25T09:32:43.635Z,100744.03
2022-10-25T09:35:28.858Z,100753.56
2022-10-25T09:38:19.232Z,100757.34
2022-10-25T09:40:56.878Z,100737.97
2022-10-25T09:43:37.272Z,100758.56
2022-10-25T09:46:37.196Z,100752.41
2022-10-25T09:49:10.490Z,100757.13
2022-10-25T09:51:58.391Z,100756.44
2022-10-25T09:54:39.752Z,100752.25
2022-10-25T09:57:07.752Z,100744.16
2022-10-25T09:59:35.948Z,100744.16
2022-10-25T10:02:04.515Z,100744.53
2022-10-25T10:04:38.577Z,100748.34
2022-10-25T10:07:26.581Z,100757.38
2022-10-25T10:10:00.708Z,100759.13
2022-10-25T10:12:48.165Z,100748.69
2022-10-25T10:15:32.747Z,100765.34
2022-10-25T10:18:26.130Z,100759.63
2022-10-25T10:21:28.297Z,100753.84
2022-10-25T10:24:05.471Z,100732.28
2022-10-25T10:26:49.036Z,100756.59
2022-10-25T10:29:31.926Z,100747.31
2022-10-25T10:32:05.200Z,100744.31
2022-10-25T10:34:44.944Z,100754.59
2022-10-25T10:37:12.510Z,100747.41
2022-10-25T10:39:59.838Z,100739.84
2022-10-25T10:42:33.429Z,100745.81
2022-10-25T10:45:10.550Z,100733.91
2022-10-25T10:47:51.372Z,100735.25
2022-10-25T10:50:25.699Z,100734.91
2022-10-25T10:53:00.125Z,100714.25
2022-10-25T10:55:37.932Z,100734.81
2022-10-25T10:58:28.362Z,100721.22
2022-10-25T11:01:06.106Z,100723.91
2022-10-25T11:03:53.880Z,100729.94
2022-10-25T11:06:33.064Z,100711.59
2022-10-25T11:09:12.995Z,100725.84
2022-10-25T11:11:41.804Z,100723.59
2022-10-25T11:14:13.840Z,100726.50
2022-10-25T11:17:02.964Z,100728.78
2022-10-25T11:19:55.893Z,100715.91
2022-10-25T11:23:04.423Z,100714.69
2022-10-25T11:25:52.852Z,100716.44
2022-10-25T11:28:57.927Z,100726.28
2022-10-25T11:31:54.624Z,100726.28
2022-10-25T11:34:48.713Z,100732.66
2022-10-25T11:37:41.447Z,100722.59
2022-10-25T11:40:35.281Z,100724.88
2022-10-25T11:43:24.041Z,100729.31
2022-10-25T11:46:30.613Z,100725.53
2022-10-25T11:49:39.156Z,100717.31
2022-10-25T11:52:25.524Z,100721.13
2022-10-25T11:55:15.980Z,100726.28
2022-10-25T11:58:05.698Z,100722.72
2022-10-25T12:00:50.969Z,100716.38
2022-10-25T12:03:37.768Z,100707.34
2022-10-25T12:06:38.915Z,100702.69
2022-10-25T12:09:42.761Z,100714.19
2022-10-25T12:12:17.598Z,100703.69
2022-10-25T12:14:56.806Z,100709.63
2022-10-25T12:17:33.965Z,100701.41
2022-10-25T12:20:08.083Z,100686.41
2022-10-25T12:22:46.648Z,100700.44
2022-10-25T12:25:46.523Z,100707.69
2022-10-25T12:28:47.464Z,100693.41
2022-10-25T12:31:47.716Z,100698.94
2022-10-25T12:34:52.543Z,100686.41
2022-10-25T12:37:38.846Z,100669.66
2022-10-25T12:40:18.424Z,100691.69
2022-10-25T12:43:21.051Z,100683.91
2022-10-25T12:46:14.286Z,100686.28
2022-10-25T12:49:07.834Z,100683.81
2022-10-25T12:52:23.643Z,100679.28
2022-10-25T12:55:03.858Z,100674.84
2022-10-25T12:57:56.636Z,100665.09
2022-10-25T13:00:30.606Z,100669.44
2022-10-25T13:03:57.113Z,100657.00
2022-10-25T13:06:39.028Z,100666.63
2022-10-25T13:09:13.681Z,100664.47
2022-10-25T13:12:21.140Z,100657.13
2022-10-25T13:14:54.618Z,100667.81
2022-10-25T13:17:23.115Z,100667.47
2022-10-25T13:20:23.803Z,100649.75
2022-10-25T13:22:52.254Z,100655.69
2022-10-25T13:25:32.872Z,100656.00
2022-10-25T13:28:17.167Z,100664.13
2022-10-25T13:30:46.508Z,100665.19
2022-10-25T13:33:24.523Z,100657.53
2022-10-25T13:35:52.342Z,100649.50
2022-10-25T13:38:39.279Z,100648.44
2022-10-25T13:41:19.898Z,100649.13
2022-10-25T13:44:05.584Z,100643.78
2022-10-25T13:46:41.400Z,100638.31
2022-10-25T13:49:42.906Z,100632.00
2022-10-25T13:52:56.013Z,100622.81
2022-10-25T13:55:32.157Z,100629.31
2022-10-25T13:58:02.648Z,100611.91
2022-10-25T14:00:48.123Z,100627.25
2022-10-25T14:03:28.041Z,100621.19
2022-10-25T14:05:55.928Z,100630.94
2022-10-25T14:09:08.914Z,100633.50
2022-10-25T14:11:51.728Z,100630.06
2022-10-25T14:15:09.405Z,100632.00
2022-10-25T14:17:44.521Z,100632.78
2022-10-25T14:20:31.185Z,100617.22
2022-10-25T14:23:07.065Z,100626.19
2022-10-25T14:25:39.484Z,100597.94
2022-10-25T14:28:16.843Z,100610.69
2022-10-25T14:31:04.882Z,100617.09
2022-10-25T14:33:58.376Z,100606.28
2022-10-25T14:36:36.684Z,100601.31
2022-10-25T14:39:16.801Z,100607.13
2022-10-25T14:42:02.382Z,100614.25
2022-10-25T14:44:45.996Z,100600.00
2022-10-25T14:47:32.699Z,100607.00
2022-10-25T14:50:15.581Z,100605.06
2022-10-25T14:52:47.084Z,100590.25
2022-10-25T14:55:34.972Z,100597.06
2022-10-25T14:58:04.777Z,100577.31
2022-10-25T15:00:32.780Z,100584.13
2022-10-25T15:03:04.486Z,100592.03
2022-10-25T15:05:33.074Z,100585.09
2022-10-25T15:08:01.538Z,100588.66
2022-10-25T15:10:46.127Z,100578.72
2022-10-25T15:13:40.909Z,100593.09
2022-10-25T15:16:33.387Z,100583.47
2022-10-25T15:19:11.167Z,100590.72
2022-10-25T15:21:44.848Z,100579.91
2022-10-25T15:24:24.498Z,100581.47
2022-10-25T15:27:07.944Z,100584.25
2022-10-25T15:29:42.321Z,100588.47
2022-10-25T15:32:19.443Z,100587.84
2022-10-25T15:34:51.039Z,100576.72
2022-10-25T15:37:22.364Z,100589.13
2022-10-25T15:39:52.407Z,100599.78
2022-10-25T15:42:22.521Z,100589.50
2022-10-25T15:44:51.818Z,100595.88
2022-10-25T15:47:27.226Z,100594.13
2022-10-25T15:49:56.149Z,100591.00
2022-10-25T15:52:24.330Z,100590.38
2022-10-25T15:54:52.723Z,100586.50
2022-10-25T15:57:20.929Z,100575.50
2022-10-25T15:59:48.979Z,100585.97
2022-10-25T16:02:32.060Z,100588.88
2022-10-25T16:05:00.015Z,100586.91
2022-10-25T16:07:27.987Z,100562.50
2022-10-25T16:09:58.583Z,100584.94
2022-10-25T16:12:32.785Z,100577.38
2022-10-25T16:15:00.647Z,100582.88
2022-10-25T16:17:29.078Z,100590.44
2022-10-25T16:19:57.244Z,100576.72
2022-10-25T16:22:25.174Z,100569.25
2022-10-25T16:24:53.228Z,100584.88
2022-10-25T16:27:21.407Z,100592.25
2022-10-25T16:29:49.250Z,100582.63
2022-10-25T16:32:18.626Z,100583.72
2022-10-25T16:34:46.950Z,100579.25
2022-10-25T16:37:16.269Z,100576.13
2022-10-25T16:39:45.857Z,100582.00
2022-10-25T16:42:33.589Z,100579.03
2022-10-25T16:45:11.381Z,100574.25
2022-10-25T16:47:39.932Z,100578.31
2022-10-25T16:50:08.569Z,100569.13
2022-10-25T16:52:36.604Z,100572.13
2022-10-25T16:55:05.289Z,100570.56
2022-10-25T16:57:33.632Z,100568.00
2022-10-25T17:00:02.034Z,100547.22
2022-10-25T17:02:29.990Z,100557.91
2022-10-25T17:05:00.856Z,100552.50
2022-10-25T17:07:34.648Z,100547.75
2022-10-25T17:10:06.424Z,100557.31
2022-10-25T17:12:34.416Z,100550.22
2022-10-25T17:15:03.738Z,100558.31
2022-10-25T17:17:32.473Z,100536.69
2022-10-25T17:20:02.308Z,100550.50
2022-10-25T17:22:33.647Z,100523.59
2022-10-25T17:25:02.726Z,100543.81
2022-10-25T17:27:40.050Z,100544.97
2022-10-25T17:30:11.062Z,100550.53
2022-10-25T17:32:39.368Z,100547.06
2022-10-25T17:35:08.303Z,100543.91
2022-10-25T17:37:36.867Z,100546.88
2022-10-25T17:40:07.573Z,100546.31
2022-10-25T17:42:36.427Z,100552.16
2022-10-25T17:45:06.242Z,100547.25
2022-10-25T17:47:38.265Z,100552.25
2022-10-25T17:50:07.126Z,100552.84
2022-10-25T17:52:36.488Z,100562.06
2022-10-25T17:55:06.482Z,100544.75
2022-10-25T17:57:36.137Z,100558.03
2022-10-25T18:00:06.239Z,100558.28
2022-10-25T18:02:41.963Z,100553.09
2022-10-25T18:05:20.213Z,100555.09
2022-10-25T18:07:50.408Z,100535.97
2022-10-25T18:10:20.245Z,100552.88
2022-10-25T18:12:49.946Z,100537.38
2022-10-25T18:15:18.830Z,100561.47
2022-10-25T18:17:50.210Z,100564.25
2022-10-25T18:20:18.889Z,100552.56
2022-10-25T18:22:47.617Z,100557.47
2022-10-25T18:25:20.890Z,100545.66
2022-10-25T18:27:50.432Z,100546.72
2022-10-25T18:30:19.674Z,100542.50
2022-10-25T18:32:48.596Z,100555.72
2022-10-25T18:35:17.534Z,100551.59
2022-10-25T18:37:49.412Z,100556.19
2022-10-25T18:40:18.119Z,100555.50
2022-10-25T18:42:48.104Z,100555.00
2022-10-25T18:45:21.044Z,100545.66
2022-10-25T18:47:54.276Z,100557.16
2022-10-25T18:50:23.692Z,100549.56
2022-10-25T18:52:51.750Z,100554.94
2022-10-25T18:55:22.129Z,100548.97
2022-10-25T18:57:50.656Z,100554.16
2022-10-25T19:00:20.040Z,100552.53
2022-10-25T19:02:54.088Z,100555.38
2022-10-25T19:05:27.012Z,100546.44
2022-10-25T19:07:57.903Z,100541.84
2022-10-25T19:10:28.079Z,100538.22
2022-10-25T19:12:58.420Z,100538.28
2022-10-25T19:15:29.099Z,100543.50
2022-10-25T19:17:58.997Z,100534.75
2022-10-25T19:20:28.375Z,100532.91
2022-10-25T19:22:59.027Z,100524.97
2022-10-25T19:25:29.941Z,100530.59
2022-10-25T19:28:01.802Z,100524.09
2022-10-25T19:30:35.491Z,100521.41
2022-10-25T19:33:07.809Z,100522.81
2022-10-25T19:35:38.917Z,100517.78
2022-10-25T19:38:09.182Z,100526.88
2022-10-25T19:40:46.684Z,100513.66
2022-10-25T19:43:18.905Z,100524.44
2022-10-25T19:45:51.026Z,100508.34
2022-10-25T19:48:23.296Z,100509.13
2022-10-25T19:50:52.203Z,100501.25
2022-10-25T19:53:21.276Z,100504.53
2022-10-25T19:56:05.536Z,100495.34
2022-10-25T19:58:33.798Z,100481.81
2022-10-25T20:01:14.436Z,100505.34
2022-10-25T20:03:44.632Z,100501.78
2022-10-25T20:06:21.670Z,100491.81
2022-10-25T20:08:55.782Z,100484.78
2022-10-25T20:11:26.948Z,100495.19
2022-10-25T20:14:03.105Z,100491.38
2022-10-25T20:16:33.596Z,100482.69
2022-10-25T20:19:03.888Z,100489.56
2022-10-25T20:21:37.769Z,100489.44
2022-10-25T20:24:09.554Z,100483.81
2022-10-25T20:26:41.401Z,100492.56
2022-10-25T20:29:21.075Z,100490.03
2022-10-25T20:31:52.803Z,100487.47
2022-10-25T20:34:21.495Z,100474.88
2022-10-25T20:36:49.844Z,100474.50
2022-10-25T20:39:38.655Z,100489.38
2022-10-25T20:42:26.760Z,100486.16
2022-10-25T20:44:55.094Z,100469.34
2022-10-25T20:47:23.211Z,100462.25
2022-10-25T20:49:51.488Z,100475.69
2022-10-25T20:52:19.384Z,100467.91
2022-10-25T20:54:47.984Z,100458.97
2022-10-25T20:57:16.489Z,100468.50
2022-10-25T20:59:44.837Z,100463.88
2022-10-25T21:02:12.770Z,100469.19
2022-10-25T21:04:49.583Z,100460.09
2022-10-25T21:07:21.625Z,100445.97
2022-10-25T21:09:49.722Z,100463.22
2022-10-25T21:12:17.796Z,100460.59
2022-10-25T21:14:45.856Z,100463.50
2022-10-25T21:17:14.205Z,100450.22
2022-10-25T21:19:43.327Z,100444.50
2022-10-25T21:22:11.266Z,100453.09
2022-10-25T21:24:39.678Z,100462.16
2022-10-25T21:27:10.042Z,100463.81
2022-10-25T21:29:38.338Z,100466.66
2022-10-25T21:32:06.692Z,100467.91
2022-10-25T21:34:34.792Z,100459.03
2022-10-25T21:37:02.824Z,100470.38
2022-10-25T21:39:32.442Z,100468.59
2022-10-25T21:42:00.521Z,100444.84
2022-10-25T21:44:28.854Z,100458.53
2022-10-25T21:46:56.927Z,100463.81
2022-10-25T21:49:24.678Z,100455.84
2022-10-25T21:51:55.188Z,100446.69
2022-10-25T21:54:24.965Z,100443.22
2022-10-25T21:56:54.110Z,100435.22
2022-10-25T21:59:22.662Z,100422.00
2022-10-25T22:01:50.716Z,100426.16
2022-10-25T22:04:18.556Z,100427.72
2022-10-25T22:06:46.509Z,100431.97
2022-10-25T22:09:14.541Z,100421.22
2022-10-25T22:11:42.792Z,100415.31
2022-10-25T22:14:13.991Z,100422.47
2022-10-25T22:16:41.728Z,100418.94
2022-10-25T22:19:20.428Z,100410.59
2022-10-25T22:21:52.344Z,100418.38
2022-10-25T22:24:20.495Z,100409.47
2022-10-25T22:26:51.254Z,100401.41
2022-10-25T22:29:19.103Z,100422.34
2022-10-25T22:31:47.658Z,100417.66
2022-10-25T22:34:15.778Z,100413.06
2022-10-25T22:36:43.554Z,100412.88
2022-10-25T22:39:11.379Z,100393.56
2022-10-25T22:41:39.558Z,100397.41
2022-10-25T22:44:07.363Z,100402.78
2022-10-25T22:46:36.123Z,100410.28
2022-10-25T22:49:09.222Z,100395.72
2022-10-25T22:51:38.595Z,100395.63
2022-10-25T22:54:07.336Z,100398.31
2022-10-25T22:56:35.742Z,100393.31
2022-10-25T22:59:06.321Z,100392.84
2022-10-25T23:01:36.762Z,100397.16
2022-10-25T23:04:09.512Z,100386.00
2022-10-25T23:06:40.312Z,100393.50
2022-10-25T23:09:11.296Z,100392.75
2022-10-25T23:11:40.985Z,100392.47
2022-10-25T23:14:13.394Z,100380.94
2022-10-25T23:16:45.213Z,100365.88
2022-10-25T23:19:13.561Z,100382.00
2022-10-25T23:21:44.061Z,100378.81
2022-10-25T23:24:12.047Z,100369.63
2022-10-25T23:26:42.037Z,100357.31
2022-10-25T23:29:13.427Z,100368.75
2022-10-25T23:31:41.826Z,100354.84
2022-10-25T23:34:10.473Z,100357.53
2022-10-25T23:36:38.292Z,100373.44
2022-10-25T23:39:08.287Z,100386.03
2022-10-25T23:41:36.213Z,100382.19
2022-10-25T23:44:04.255Z,100407.63
2022-10-25T23:46:32.236Z,100388.25
2022-10-25T23:49:00.103Z,100370.66
2022-10-25T23:51:27.945Z,100372.88
2022-10-25T23:53:55.768Z,100378.16
2022-10-25T23:56:23.586Z,100390.66
2022-10-25T23:58:54.367Z,100391.41
